Whistler, Alabama
Current Conditions -  °F | °C
As of 7:56 AM on Thursday 23 Oct 2014 (Local Time) from KMOB Reporting Station
Few Clouds Few Clouds  
Wind Chill: 10°   Ceiling: Unl
Heat Index: 10°   Visibility: 10mi
Dew Point:   Wind: 9mph
Humidity: 83%   Direction: 30°NNE
Pressure: 30.11"   Gusts: NA
Location:  30.7534°N, 88.1122°W
Report Text: KMOB 231256Z 03008KT 10SM FEW060 10/07 A3011 RMK AO2 SLP193 T01000072
Loading
Personal Weather Stations






























Interactive Weather Map
Tropical Storm Tracking
New forecast layout! Learn more

10-Day Weather Forecast

Advertisements
Track Severe Weather on mobile